Hauptseite
METAR-TAF:

METAR-TAF

Flughäfen :

Châteaudun, Frankreich

Militärflugplatz Châteaudun

Breite: 48-03N, Länge: 001-23E, Höhe: 134 m

Beobachtung

Neuester Wetterbericht von vor 18 Minuten, um 15:00 UTC
Wind 10 kt aus West/Nordwest
Temperatur 8°C
Luftfeuchtigkeit 66%
Luftdruck 1015 hPa
Sichtweite 10 km oder mehr
Leicht bewölkt in der Höhe von 3400 ft

METAR: LFOC 191500Z AUTO 29010KT 9999 FEW034 08/02 Q1015

Zeit: 16:18 (15:18 UTC)


TAF: fehlend

Wetterbeobachtungen und Prognosen von mehr als 4000 Flughäfen (METAR und TAF Bericht).

Die verfügbaren Stationen werden durch gelbe und rote Markierungen auf der Karte dargestellt.

Führen Sie die Maus auf sie, um den Namen der Station zu sehen.

Darauf klicken, um die Beobachtung von Wetterbeobachtungen und Prognosen zu sehen.

Um die Karte zu ändern : klicken Sie auf den grünen Tasten mit einem schwarzen Kreuz Zum Vergrößern, auf den grünen Button mit einem Gedankenstrich zu verkleinern, oder auf die grünen Pfeile für benachbarte Karten.


METAR-TAF: